Time;durP1;ratioP1;P1;durP2;ratioP2;P2;SDS_P1;SDS_P2;PMS_P1;PMS_P2;Temp;Humidity;BMP_temperature;BMP_pressure;BME280_temperature;BME280_humidity;BME280_pressure;Samples;Min_cycle;Max_cycle;Signal;HPM_P1;HPM_P2
2023/01/05 00:01:43;;;;;;;1.93;1.20;;;;;;;10.33;100.00;96743.69;5036361;28;20252;-73
2023/01/05 00:04:10;;;;;;;1.33;1.00;;;;;;;10.40;100.00;96742.03;5035450;28;20689;-72
2023/01/05 00:06:38;;;;;;;1.60;1.00;;;;;;;10.36;100.00;96747.78;5035970;28;20211;-73
2023/01/05 00:09:05;;;;;;;2.00;1.10;;;;;;;10.36;100.00;96727.56;5036387;28;20296;-73
2023/01/05 00:22:37;;;;;;;1.20;0.90;;;;;;;10.41;100.00;96741.06;5039381;28;20243;-72
2023/01/05 00:25:06;;;;;;;2.53;1.30;;;;;;;10.48;100.00;96722.78;5038918;28;20240;-72
2023/01/05 00:27:33;;;;;;;1.40;0.80;;;;;;;10.39;100.00;96729.03;5039510;28;20676;-73
2023/01/05 00:30:01;;;;;;;1.27;0.93;;;;;;;10.37;100.00;96716.03;5042485;28;20236;-73
2023/01/05 00:32:28;;;;;;;1.60;0.80;;;;;;;10.34;100.00;96721.63;5043076;28;20716;-71
2023/01/05 00:34:55;;;;;;;2.37;1.17;;;;;;;10.32;100.00;96696.44;5044014;28;20204;-71
2023/01/05 00:37:22;;;;;;;1.70;1.10;;;;;;;10.55;100.00;96719.34;5044178;28;20205;-72
2023/01/05 00:39:50;;;;;;;1.20;0.90;;;;;;;10.45;100.00;96713.41;5044104;28;20201;-72
2023/01/05 00:42:16;;;;;;;1.87;1.13;;;;;;;10.45;100.00;96686.22;5043871;28;20224;-70
2023/01/05 00:44:43;;;;;;;1.40;1.00;;;;;;;10.53;100.00;96688.88;5043184;28;20208;-70
2023/01/05 00:47:11;;;;;;;1.90;1.00;;;;;;;10.42;100.00;96692.66;5044106;28;20598;-72
2023/01/05 00:49:37;;;;;;;1.20;0.77;;;;;;;10.32;100.00;96681.47;5043007;28;20212;-72
2023/01/05 00:52:04;;;;;;;0.50;0.50;;;;;;;10.43;100.00;96707.47;5043696;28;20642;-71
2023/01/05 00:54:31;;;;;;;0.50;0.50;;;;;;;10.33;100.00;96696.28;5043368;28;20236;-71
2023/01/05 00:56:58;;;;;;;1.73;1.00;;;;;;;10.38;100.00;96685.25;5043096;28;20286;-71
2023/01/05 00:59:24;;;;;;;1.27;0.90;;;;;;;10.35;100.00;96696.94;5043641;28;20792;-71
2023/01/05 01:01:52;;;;;;;0.90;0.70;;;;;;;10.38;100.00;96690.50;5043858;28;21016;-71
2023/01/05 01:04:20;;;;;;;0.87;0.77;;;;;;;10.49;100.00;96677.03;5042048;28;20657;-71
2023/01/05 01:06:47;;;;;;;1.47;0.70;;;;;;;10.46;100.00;96677.31;5043271;28;20237;-72
2023/01/05 01:09:15;;;;;;;1.90;0.80;;;;;;;10.52;100.00;96679.31;5044409;28;20205;-71
2023/01/05 01:11:42;;;;;;;1.67;0.90;;;;;;;10.47;100.00;96679.78;5043683;28;20225;-70
2023/01/05 01:14:11;;;;;;;1.33;1.03;;;;;;;10.65;100.00;96679.63;5043020;28;20232;-72
2023/01/05 01:16:37;;;;;;;1.33;0.97;;;;;;;10.58;100.00;96686.56;5044021;28;20213;-72
2023/01/05 01:19:04;;;;;;;1.20;0.90;;;;;;;10.64;100.00;96686.72;5043494;28;20209;-71
2023/01/05 01:21:32;;;;;;;0.77;0.60;;;;;;;10.71;100.00;96671.88;5043537;28;20232;-72
2023/01/05 01:23:58;;;;;;;0.80;0.60;;;;;;;10.60;100.00;96669.59;5042939;28;20201;-72
2023/01/05 01:26:25;;;;;;;0.70;0.50;;;;;;;10.62;100.00;96670.22;5043905;28;20212;-71
2023/01/05 01:28:51;;;;;;;2.60;0.50;;;;;;;10.65;100.00;96666.44;5043442;28;20208;-71
2023/01/05 01:31:18;;;;;;;0.40;0.40;;;;;;;10.71;100.00;96671.06;5043240;28;20236;-70
2023/01/05 01:33:44;;;;;;;0.97;0.60;;;;;;;10.66;100.00;96674.19;5042725;28;20251;-71
2023/01/05 01:36:11;;;;;;;0.33;0.30;;;;;;;10.74;100.00;96692.63;5043235;28;20205;-69
2023/01/05 01:38:38;;;;;;;0.50;0.50;;;;;;;10.83;100.00;96690.78;5043689;28;20218;-70
2023/01/05 01:41:05;;;;;;;1.63;0.70;;;;;;;10.71;100.00;96682.41;5043345;28;20236;-71
2023/01/05 01:43:46;;;;;;;0.60;0.57;;;;;;;10.68;100.00;96676.66;5043883;28;20570;-71
2023/01/05 01:46:14;;;;;;;0.67;0.60;;;;;;;10.48;100.00;96685.91;5044011;28;20204;-72
2023/01/05 01:48:46;;;;;;;0.50;0.50;;;;;;;10.47;100.00;96684.25;5042908;28;20744;-72
2023/01/05 01:51:16;;;;;;;0.53;0.50;;;;;;;10.49;100.00;96682.28;5043675;28;20236;-71
2023/01/05 01:53:46;;;;;;;0.80;0.70;;;;;;;10.43;100.00;96664.50;5043684;28;20225;-71
2023/01/05 01:56:18;;;;;;;0.33;0.33;;;;;;;10.40;100.00;96664.84;5043853;28;20209;-71
2023/01/05 01:58:45;;;;;;;0.70;0.60;;;;;;;10.31;100.00;96663.19;5043692;28;20205;-71
2023/01/05 02:01:11;;;;;;;0.60;0.60;;;;;;;10.37;100.00;96663.34;5044097;28;20251;-72
2023/01/05 02:03:39;;;;;;;1.00;0.53;;;;;;;10.44;100.00;96660.88;5043229;28;20567;-71
2023/01/05 02:06:06;;;;;;;0.53;0.50;;;;;;;10.51;100.00;96664.47;5042733;28;20216;-71
2023/01/05 02:08:32;;;;;;;0.93;0.70;;;;;;;10.49;100.00;96661.22;5043237;28;20206;-72
2023/01/05 02:11:17;;;;;;;0.90;0.47;;;;;;;10.72;100.00;96662.97;5043913;28;20224;-70
2023/01/05 02:14:01;;;;;;;0.87;0.73;;;;;;;10.72;100.00;96662.16;5042824;28;20232;-72
2023/01/05 02:16:38;;;;;;;0.67;0.63;;;;;;;10.78;100.00;96651.78;5043774;28;20204;-71
2023/01/05 02:19:43;;;;;;;0.50;0.50;;;;;;;10.86;100.00;96649.13;5043474;28;20208;-70
2023/01/05 02:22:32;;;;;;;0.40;0.40;;;;;;;10.81;100.00;96646.16;5042389;28;20985;-70
2023/01/05 02:25:23;;;;;;;0.67;0.57;;;;;;;10.85;100.00;96647.47;5043924;28;20202;-72
2023/01/05 02:27:58;;;;;;;0.57;0.57;;;;;;;10.80;100.00;96654.22;5043978;28;20197;-70
2023/01/05 02:30:59;;;;;;;2.70;0.70;;;;;;;10.87;100.00;96639.38;5043609;28;20236;-71
2023/01/05 02:33:35;;;;;;;1.80;0.47;;;;;;;10.79;100.00;96642.84;5044476;28;20312;-69
2023/01/05 02:36:09;;;;;;;0.70;0.57;;;;;;;10.69;100.00;96631.69;5044285;28;20209;-70
2023/01/05 02:38:42;;;;;;;1.00;0.70;;;;;;;10.77;100.00;96617.66;5044606;28;20228;-71
2023/01/05 02:41:26;;;;;;;0.43;0.43;;;;;;;10.78;100.00;96608.75;5044309;28;20651;-72
2023/01/05 02:43:52;;;;;;;0.70;0.60;;;;;;;10.59;100.00;96617.03;5043586;28;20193;-71
2023/01/05 02:46:20;;;;;;;0.47;0.47;;;;;;;10.72;100.00;96620.81;5042436;28;20205;-71
2023/01/05 02:48:51;;;;;;;0.77;0.60;;;;;;;10.74;100.00;96626.72;5042921;28;20201;-71
2023/01/05 02:51:21;;;;;;;0.70;0.47;;;;;;;10.79;100.00;96616.50;5042865;28;20240;-70
2023/01/05 02:53:53;;;;;;;0.60;0.60;;;;;;;10.79;100.00;96599.88;5041223;28;20220;-72
2023/01/05 02:56:22;;;;;;;0.63;0.50;;;;;;;10.82;100.00;96591.59;5042016;28;20661;-71
2023/01/05 02:58:53;;;;;;;0.57;0.57;;;;;;;10.85;100.00;96593.91;5042968;28;20584;-72
2023/01/05 03:01:24;;;;;;;0.73;0.67;;;;;;;10.83;100.00;96596.69;5041508;28;20233;-72
2023/01/05 03:03:55;;;;;;;0.63;0.60;;;;;;;10.85;100.00;96593.91;5041700;28;20205;-71
2023/01/05 03:06:26;;;;;;;0.40;0.40;;;;;;;10.79;100.00;96595.41;5041849;28;20216;-72
2023/01/05 03:08:55;;;;;;;0.60;0.60;;;;;;;10.81;100.00;96588.16;5043225;28;20201;-70
2023/01/05 03:14:12;;;;;;;0.40;0.40;;;;;;;10.91;100.00;96611.69;5041926;28;20632;-73
2023/01/05 03:16:40;;;;;;;0.47;0.47;;;;;;;10.84;100.00;96616.00;5042955;28;20220;-72
2023/01/05 03:35:54;;;;;;;0.43;0.43;;;;;;;10.94;100.00;96618.25;5042804;28;20722;-73
2023/01/05 03:38:26;;;;;;;0.50;0.50;;;;;;;10.94;100.00;96612.97;5043212;28;20212;-72
2023/01/05 03:40:58;;;;;;;0.40;0.40;;;;;;;10.92;100.00;96615.97;5042345;28;20240;-71
2023/01/05 03:43:25;;;;;;;0.47;0.30;;;;;;;10.93;100.00;96596.53;5042892;28;20201;-72
2023/01/05 03:45:53;;;;;;;0.60;0.60;;;;;;;10.98;100.00;96605.56;5043351;28;20229;-71
2023/01/05 03:48:22;;;;;;;0.40;0.40;;;;;;;10.93;100.00;96601.78;5041402;28;20205;-71
2023/01/05 03:50:49;;;;;;;0.30;0.30;;;;;;;10.78;100.00;96600.84;5041575;28;20701;-73
2023/01/05 03:53:16;;;;;;;0.40;0.40;;;;;;;10.77;100.00;96586.00;5043085;28;20213;-72
2023/01/05 03:55:43;;;;;;;0.40;0.40;;;;;;;10.78;100.00;96588.50;5046830;28;20204;-72
2023/01/05 03:58:09;;;;;;;0.47;0.40;;;;;;;10.84;100.00;96587.00;5047504;28;20209;-72
2023/01/05 04:00:36;;;;;;;0.47;0.47;;;;;;;10.76;100.00;96594.94;5047803;28;20315;-70
2023/01/05 04:03:02;;;;;;;0.50;0.37;;;;;;;10.82;100.00;96594.25;5047611;28;20654;-72
2023/01/05 04:05:30;;;;;;;0.43;0.43;;;;;;;10.86;100.00;96588.47;5047386;28;20205;-72
2023/01/05 04:07:56;;;;;;;0.30;0.30;;;;;;;10.78;100.00;96612.22;5046489;28;20204;-72
2023/01/05 04:10:23;;;;;;;0.20;0.20;;;;;;;10.78;100.00;96609.59;5045734;28;20601;-72
2023/01/05 04:12:49;;;;;;;0.30;0.30;;;;;;;10.74;100.00;96610.91;5045739;28;20209;-71
2023/01/05 04:15:16;;;;;;;0.40;0.40;;;;;;;10.78;100.00;96601.69;5045396;28;20264;-72
2023/01/05 04:17:42;;;;;;;0.40;0.40;;;;;;;10.65;100.00;96600.56;5045243;28;20201;-72
2023/01/05 04:20:10;;;;;;;0.40;0.40;;;;;;;10.72;100.00;96606.81;5044664;28;20225;-71
2023/01/05 04:22:38;;;;;;;0.50;0.33;;;;;;;10.73;100.00;96617.19;5044667;28;20201;-71
2023/01/05 04:25:05;;;;;;;0.30;0.30;;;;;;;10.64;100.00;96607.66;5045027;28;20205;-71
2023/01/05 04:27:32;;;;;;;2.47;0.43;;;;;;;10.52;100.00;96608.97;5044577;28;20212;-72
2023/01/05 04:29:58;;;;;;;0.90;0.53;;;;;;;10.43;100.00;96607.34;5045251;28;20224;-72
2023/01/05 04:32:25;;;;;;;0.40;0.40;;;;;;;10.39;100.00;96613.13;5045192;28;20208;-71
2023/01/05 04:34:51;;;;;;;0.23;0.23;;;;;;;10.40;100.00;96599.78;5043830;28;20217;-72
2023/01/05 04:37:17;;;;;;;1.07;0.47;;;;;;;10.33;100.00;96613.78;5044302;28;20216;-71
2023/01/05 04:39:45;;;;;;;0.40;0.40;;;;;;;10.42;100.00;96602.25;5045599;28;20201;-72
2023/01/05 04:42:12;;;;;;;0.60;0.50;;;;;;;10.37;100.00;96592.22;5044425;28;20201;-72
2023/01/05 04:44:38;;;;;;;0.40;0.40;;;;;;;10.35;100.00;96606.56;5044951;28;20216;-71
2023/01/05 04:47:05;;;;;;;0.30;0.30;;;;;;;10.38;100.00;96603.56;5045707;28;20209;-70
2023/01/05 04:49:31;;;;;;;0.40;0.40;;;;;;;10.38;100.00;96595.66;5045484;28;20205;-71
2023/01/05 04:51:57;;;;;;;0.57;0.50;;;;;;;10.36;100.00;96597.63;5044294;28;20595;-71
2023/01/05 04:54:24;;;;;;;0.50;0.50;;;;;;;10.37;100.00;96599.28;5046151;28;20997;-71
2023/01/05 04:56:52;;;;;;;0.30;0.30;;;;;;;10.48;100.00;96591.06;5045538;28;20213;-72
2023/01/05 04:59:18;;;;;;;0.50;0.50;;;;;;;10.42;100.00;96596.97;5045466;28;20209;-72
2023/01/05 05:01:45;;;;;;;0.30;0.30;;;;;;;10.47;100.00;96592.84;5046331;28;20225;-71
2023/01/05 05:04:11;;;;;;;3.93;0.50;;;;;;;10.45;100.00;96586.94;5045856;28;20236;-72
2023/01/05 05:06:38;;;;;;;0.73;0.70;;;;;;;10.50;100.00;96592.53;5045568;28;20212;-71
2023/01/05 05:09:04;;;;;;;0.40;0.40;;;;;;;10.52;100.00;96597.63;5045330;28;20205;-73
2023/01/05 05:11:31;;;;;;;0.47;0.40;;;;;;;10.46;100.00;96600.91;5045761;28;20221;-72
2023/01/05 05:13:59;;;;;;;2.57;0.67;;;;;;;10.57;100.00;96603.22;5045272;28;20232;-71
2023/01/05 05:16:25;;;;;;;1.10;0.53;;;;;;;10.51;100.00;96607.34;5044786;28;20674;-73
2023/01/05 05:18:51;;;;;;;0.60;0.43;;;;;;;10.57;100.00;96619.84;5045949;28;20307;-72
2023/01/05 05:21:18;;;;;;;0.53;0.53;;;;;;;10.52;100.00;96608.97;5045650;28;20239;-72
2023/01/05 05:23:44;;;;;;;0.70;0.60;;;;;;;10.46;100.00;96616.72;5042602;28;20212;-72
2023/01/05 05:26:11;;;;;;;0.30;0.30;;;;;;;10.42;100.00;96615.41;5044221;28;20212;-69
2023/01/05 05:28:38;;;;;;;0.30;0.30;;;;;;;10.41;100.00;96622.50;5042938;28;20201;-71
2023/01/05 05:31:05;;;;;;;0.47;0.47;;;;;;;10.56;100.00;96620.81;5041732;28;20221;-71
2023/01/05 05:33:32;;;;;;;3.90;0.40;;;;;;;10.35;100.00;96620.53;5042274;28;20212;-72
2023/01/05 05:35:58;;;;;;;0.30;0.30;;;;;;;10.29;100.00;96615.13;5042358;28;20585;-71
2023/01/05 05:38:25;;;;;;;0.60;0.60;;;;;;;10.30;100.00;96616.75;5041632;28;20569;-71
2023/01/05 05:40:51;;;;;;;2.87;1.07;;;;;;;10.34;100.00;96616.25;5041180;28;21135;-71
2023/01/05 05:43:18;;;;;;;0.77;0.63;;;;;;;10.25;100.00;96610.34;5041084;28;20669;-71
2023/01/05 05:45:44;;;;;;;2.53;0.50;;;;;;;10.18;100.00;96610.16;5040077;28;20826;-70
2023/01/05 05:48:12;;;;;;;2.00;0.40;;;;;;;10.26;100.00;96619.88;5040121;28;20681;-69
2023/01/05 05:50:38;;;;;;;0.40;0.40;;;;;;;10.18;100.00;96628.59;5040992;28;20221;-71
2023/01/05 05:53:05;;;;;;;0.93;0.37;;;;;;;10.26;100.00;96626.00;5040661;28;20209;-71
2023/01/05 05:55:33;;;;;;;2.83;0.67;;;;;;;10.19;100.00;96637.34;5039487;28;20254;-71
2023/01/05 05:57:59;;;;;;;0.53;0.50;;;;;;;10.21;100.00;96636.19;5039909;28;20220;-69
2023/01/05 06:00:26;;;;;;;0.50;0.50;;;;;;;10.29;100.00;96633.56;5040318;28;20228;-71
2023/01/05 06:02:52;;;;;;;0.50;0.40;;;;;;;10.21;100.00;96641.47;5039771;28;20212;-70
2023/01/05 06:05:20;;;;;;;0.40;0.40;;;;;;;10.37;100.00;96647.56;5038972;28;20198;-69
2023/01/05 06:07:46;;;;;;;0.43;0.43;;;;;;;10.33;100.00;96651.50;5039369;28;20198;-70
2023/01/05 06:10:13;;;;;;;0.70;0.60;;;;;;;10.30;100.00;96651.00;5039473;28;20221;-70
2023/01/05 06:12:39;;;;;;;0.60;0.50;;;;;;;10.28;100.00;96652.16;5039311;28;20209;-69
2023/01/05 06:15:07;;;;;;;0.87;0.83;;;;;;;10.32;100.00;96651.66;5038718;28;20229;-69
2023/01/05 06:17:34;;;;;;;0.40;0.40;;;;;;;10.22;100.00;96653.66;5037854;28;21078;-71
2023/01/05 06:20:00;;;;;;;0.47;0.47;;;;;;;10.17;100.00;96652.47;5039166;28;20221;-72
2023/01/05 06:22:28;;;;;;;0.80;0.67;;;;;;;10.23;100.00;96654.47;5039968;28;20583;-71
2023/01/05 06:24:54;;;;;;;3.87;0.80;;;;;;;10.14;100.00;96661.53;5038996;28;20203;-69
2023/01/05 06:27:21;;;;;;;4.57;2.23;;;;;;;10.18;100.00;96667.28;5039303;28;20287;-70
2023/01/05 06:29:47;;;;;;;0.73;0.73;;;;;;;10.15;100.00;96659.72;5038624;28;20205;-71
2023/01/05 06:32:21;;;;;;;2.70;1.40;;;;;;;10.33;100.00;96656.78;5038100;28;20209;-71
2023/01/05 06:34:48;;;;;;;1.20;0.83;;;;;;;10.22;100.00;96671.25;5037389;28;20237;-69
2023/01/05 06:37:14;;;;;;;1.00;0.63;;;;;;;10.21;100.00;96657.25;5038577;28;20216;-70
2023/01/05 06:39:42;;;;;;;1.17;1.00;;;;;;;10.27;100.00;96661.84;5038627;28;20205;-71
2023/01/05 06:42:08;;;;;;;1.70;1.03;;;;;;;10.24;100.00;96656.94;5038210;28;20209;-71
2023/01/05 06:44:35;;;;;;;0.73;0.60;;;;;;;10.16;100.00;96646.41;5037041;28;20209;-68
2023/01/05 06:47:01;;;;;;;3.83;0.73;;;;;;;10.20;100.00;96650.34;5040317;28;20572;-69
2023/01/05 06:49:28;;;;;;;3.57;0.70;;;;;;;10.21;100.00;96652.00;5040601;28;20209;-70
2023/01/05 06:51:54;;;;;;;1.90;0.83;;;;;;;10.19;100.00;96648.69;5039603;28;20306;-69
2023/01/05 06:54:21;;;;;;;2.73;1.60;;;;;;;10.32;100.00;96643.75;5041318;28;20316;-70
2023/01/05 06:56:49;;;;;;;2.50;1.10;;;;;;;10.34;100.00;96662.84;5042148;28;20934;-70
2023/01/05 06:59:15;;;;;;;0.60;0.60;;;;;;;10.29;100.00;96659.88;5041503;28;20205;-69
2023/01/05 07:01:42;;;;;;;0.97;0.60;;;;;;;10.29;100.00;96659.88;5041416;28;20221;-70
2023/01/05 07:04:08;;;;;;;0.50;0.50;;;;;;;10.26;100.00;96660.22;5042547;28;20591;-70
2023/01/05 07:06:34;;;;;;;0.77;0.60;;;;;;;10.35;100.00;96657.41;5042488;28;21035;-70
2023/01/05 07:09:01;;;;;;;0.40;0.40;;;;;;;10.30;100.00;96658.91;5042332;28;20244;-70
2023/01/05 07:11:28;;;;;;;0.83;0.83;;;;;;;10.27;100.00;96667.13;5042878;28;20232;-70
2023/01/05 07:13:55;;;;;;;0.50;0.50;;;;;;;10.38;100.00;96669.44;5042792;28;20197;-70
2023/01/05 07:16:22;;;;;;;0.63;0.60;;;;;;;10.39;100.00;96669.25;5043493;28;20740;-70
2023/01/05 07:18:48;;;;;;;0.70;0.50;;;;;;;10.35;100.00;96685.59;5042255;28;20197;-70
2023/01/05 07:21:15;;;;;;;0.80;0.50;;;;;;;10.32;100.00;96685.06;5041271;28;20221;-70
2023/01/05 07:23:41;;;;;;;1.80;0.50;;;;;;;10.29;100.00;96688.88;5041338;28;20227;-70
2023/01/05 07:26:09;;;;;;;0.83;0.63;;;;;;;10.29;100.00;96690.69;5041320;28;21079;-69
2023/01/05 07:28:36;;;;;;;0.93;0.60;;;;;;;10.29;100.00;96709.13;5041640;28;20945;-70
2023/01/05 07:31:06;;;;;;;0.57;0.50;;;;;;;10.33;100.00;96711.25;5045651;28;20229;-70
2023/01/05 07:33:32;;;;;;;0.63;0.40;;;;;;;10.26;100.00;96723.44;5043696;28;20204;-70
2023/01/05 07:36:00;;;;;;;1.40;1.00;;;;;;;10.31;100.00;96726.41;5044103;28;20227;-70
2023/01/05 07:38:27;;;;;;;2.60;1.13;;;;;;;10.26;100.00;96731.34;5044019;28;20239;-70
2023/01/05 07:40:53;;;;;;;1.27;0.80;;;;;;;10.16;100.00;96749.09;5044415;28;20228;-70
2023/01/05 07:43:20;;;;;;;1.27;0.60;;;;;;;10.21;100.00;96757.34;5045496;28;20212;-70
2023/01/05 07:45:47;;;;;;;0.40;0.40;;;;;;;10.19;100.00;96764.56;5043916;28;20205;-70
2023/01/05 07:48:14;;;;;;;0.60;0.60;;;;;;;10.29;100.00;96767.88;5045324;28;20656;-70
2023/01/05 07:50:41;;;;;;;0.57;0.53;;;;;;;10.24;100.00;96762.28;5045393;28;20233;-70
2023/01/05 07:53:07;;;;;;;0.80;0.67;;;;;;;10.18;100.00;96770.00;5045379;28;20274;-70
2023/01/05 07:55:34;;;;;;;2.00;1.60;;;;;;;10.28;100.00;96770.69;5045518;28;20807;-70
2023/01/05 07:58:00;;;;;;;0.70;0.70;;;;;;;10.23;100.00;96771.16;5045575;28;20262;-69
2023/01/05 08:00:26;;;;;;;0.80;0.73;;;;;;;10.28;100.00;96778.59;5047700;28;20224;-70
2023/01/05 08:02:53;;;;;;;2.87;1.73;;;;;;;10.32;100.00;96772.81;5040433;28;20252;-71
2023/01/05 08:05:21;;;;;;;3.47;2.50;;;;;;;10.34;100.00;96789.28;5040517;28;20209;-70
2023/01/05 08:07:47;;;;;;;3.07;2.20;;;;;;;10.29;100.00;96796.84;5040271;28;20201;-71
2023/01/05 08:10:29;;;;;;;11.03;3.77;;;;;;;10.25;100.00;96795.53;5039863;28;20225;-71
2023/01/05 08:15:39;;;;;;;8.40;3.70;;;;;;;10.23;100.00;96800.13;5039300;28;20375;-71
2023/01/05 08:18:06;;;;;;;14.20;6.17;;;;;;;10.29;100.00;96796.84;5039812;28;20220;-70
2023/01/05 08:20:34;;;;;;;9.00;3.03;;;;;;;10.41;100.00;96795.56;5039885;28;20282;-71
2023/01/05 08:23:00;;;;;;;5.93;2.93;;;;;;;10.28;100.00;96800.47;5040055;28;20205;-71
2023/01/05 08:25:27;;;;;;;2.03;1.20;;;;;;;10.24;100.00;96798.34;5038987;28;20212;-71
2023/01/05 08:27:53;;;;;;;6.20;2.17;;;;;;;10.29;100.00;96793.41;5040098;28;20292;-71
2023/01/05 08:30:20;;;;;;;1.30;1.10;;;;;;;10.27;100.00;96804.09;5039516;28;20225;-71
2023/01/05 08:32:46;;;;;;;1.17;0.90;;;;;;;10.25;100.00;96795.53;5039546;28;20572;-71
2023/01/05 08:35:13;;;;;;;1.10;0.80;;;;;;;10.27;100.00;96806.72;5038734;28;21278;-71
2023/01/05 08:37:43;;;;;;;2.50;0.90;;;;;;;10.43;100.00;96804.13;5039696;28;20216;-71
2023/01/05 08:40:10;;;;;;;1.57;0.77;;;;;;;10.27;100.00;96809.34;5038761;28;20235;-71
2023/01/05 08:42:36;;;;;;;1.10;0.70;;;;;;;10.32;100.00;96807.06;5038700;28;20629;-71
2023/01/05 08:45:03;;;;;;;0.73;0.63;;;;;;;10.28;100.00;96816.28;5038498;28;21275;-71
2023/01/05 08:47:30;;;;;;;1.47;0.90;;;;;;;10.20;100.00;96805.72;5039599;28;20213;-71
2023/01/05 08:49:56;;;;;;;1.23;0.80;;;;;;;10.25;100.00;96815.78;5039404;28;20217;-71
2023/01/05 08:52:23;;;;;;;1.73;1.40;;;;;;;10.22;100.00;96821.38;5039150;28;20242;-71
2023/01/05 08:54:50;;;;;;;1.00;0.87;;;;;;;10.32;100.00;96822.06;5038541;28;20591;-71
2023/01/05 08:57:17;;;;;;;1.50;1.30;;;;;;;10.32;100.00;96823.72;5039301;28;20237;-71
2023/01/05 08:59:43;;;;;;;1.93;1.40;;;;;;;10.39;100.00;96835.25;5038757;28;20201;-71
2023/01/05 09:02:11;;;;;;;1.70;1.50;;;;;;;10.44;100.00;96842.66;5039105;28;20205;-71
2023/01/05 09:04:38;;;;;;;2.90;1.63;;;;;;;10.29;100.00;96839.00;5038794;28;20201;-69
2023/01/05 09:07:04;;;;;;;3.87;1.60;;;;;;;10.26;100.00;96843.75;5038760;28;20201;-69
2023/01/05 09:09:30;;;;;;;7.93;5.73;;;;;;;10.31;100.00;96846.75;5038884;28;20205;-70
2023/01/05 09:11:58;;;;;;;10.17;3.20;;;;;;;10.42;100.00;96866.56;5038986;28;20221;-70
2023/01/05 09:14:25;;;;;;;6.13;3.57;;;;;;;10.40;100.00;96862.44;5038122;28;20226;-69
2023/01/05 09:16:51;;;;;;;7.23;3.00;;;;;;;10.34;100.00;96876.22;5038853;28;20236;-70
2023/01/05 09:19:17;;;;;;;5.27;3.40;;;;;;;10.38;100.00;96872.28;5038676;28;20586;-70
2023/01/05 09:21:44;;;;;;;6.53;3.80;;;;;;;10.42;100.00;96868.34;5038660;28;20228;-69
2023/01/05 09:24:12;;;;;;;3.40;1.90;;;;;;;10.43;100.00;96864.72;5038244;28;20258;-69
2023/01/05 09:26:38;;;;;;;0.90;0.70;;;;;;;10.42;100.00;96858.66;5038546;28;20288;-70
2023/01/05 09:29:06;;;;;;;1.50;1.00;;;;;;;10.56;100.00;96862.44;5038537;28;20604;-70
2023/01/05 09:31:33;;;;;;;1.67;1.20;;;;;;;10.62;100.00;96864.44;5038300;28;20233;-69
2023/01/05 09:33:59;;;;;;;2.20;1.53;;;;;;;10.61;100.00;96865.44;5037962;28;20216;-69
2023/01/05 09:36:26;;;;;;;2.40;1.70;;;;;;;10.59;100.00;96862.97;5038264;28;20231;-70
2023/01/05 09:38:54;;;;;;;1.00;0.90;;;;;;;10.66;100.00;96868.41;5038759;28;20649;-69
2023/01/05 09:41:24;;;;;;;1.70;0.80;;;;;;;10.70;100.00;96864.44;5038225;28;20224;-69
2023/01/05 09:43:55;;;;;;;1.23;0.80;;;;;;;10.75;100.00;96870.88;5037404;28;20821;-72
2023/01/05 09:46:28;;;;;;;2.73;0.83;;;;;;;10.71;100.00;96880.09;5037761;28;20315;-69
2023/01/05 09:48:59;;;;;;;0.50;0.50;;;;;;;10.63;100.00;96881.91;5038224;28;20201;-71
2023/01/05 09:51:25;;;;;;;1.03;0.77;;;;;;;10.47;100.00;96881.88;5038264;28;20911;-70
2023/01/05 09:53:52;;;;;;;1.20;0.90;;;;;;;10.47;100.00;96890.56;5036889;28;21054;-70
2023/01/05 09:56:27;;;;;;;2.00;0.90;;;;;;;10.60;100.00;96885.69;5038105;28;20236;-71
2023/01/05 09:59:02;;;;;;;3.00;1.00;;;;;;;10.69;100.00;96890.00;5037876;28;20197;-70
2023/01/05 10:01:31;;;;;;;2.97;1.00;;;;;;;10.79;100.00;96884.56;5037663;28;20228;-70
2023/01/05 10:04:02;;;;;;;2.17;1.40;;;;;;;10.75;100.00;96889.31;5037295;28;20208;-70
2023/01/05 10:06:33;;;;;;;1.10;0.90;;;;;;;10.76;100.00;96890.97;5037603;28;21160;-70
2023/01/05 10:09:02;;;;;;;1.57;1.10;;;;;;;10.75;100.00;96884.06;5037726;28;20749;-70
2023/01/05 10:14:25;;;;;;;3.83;1.53;;;;;;;10.82;100.00;96884.22;5036967;28;20343;-72
2023/01/05 10:16:53;;;;;;;5.60;1.93;;;;;;;10.84;100.00;96890.19;5037376;28;20221;-72
2023/01/05 10:19:20;;;;;;;3.17;1.90;;;;;;;10.87;100.00;96888.06;5036993;28;20209;-71
2023/01/05 10:21:55;;;;;;;3.87;2.20;;;;;;;10.95;100.00;96890.69;5037876;28;20217;-72
2023/01/05 10:24:29;;;;;;;2.47;1.63;;;;;;;11.07;100.00;96884.94;5037006;28;20209;-71
2023/01/05 10:27:04;;;;;;;5.17;2.40;;;;;;;11.02;100.00;96881.13;5037403;28;20196;-72
2023/01/05 10:29:38;;;;;;;4.37;2.53;;;;;;;11.03;100.00;96880.94;5037480;28;20579;-71
2023/01/05 10:32:17;;;;;;;4.33;2.50;;;;;;;11.09;100.00;96882.13;5037805;28;20216;-72
2023/01/05 10:34:56;;;;;;;3.27;2.27;;;;;;;11.25;100.00;96872.41;5036378;28;20711;-73
2023/01/05 10:37:52;;;;;;;3.20;2.10;;;;;;;11.46;100.00;96870.06;5035547;28;20691;-72
2023/01/05 10:40:33;;;;;;;3.10;1.80;;;;;;;11.39;100.00;96882.28;5036475;28;20270;-72
2023/01/05 10:43:20;;;;;;;2.67;2.00;;;;;;;11.38;100.00;96883.28;5036698;28;20213;-72
2023/01/05 10:45:46;;;;;;;4.80;2.10;;;;;;;11.27;100.00;96883.59;5036136;28;20208;-72
2023/01/05 10:48:17;;;;;;;3.33;2.10;;;;;;;11.41;100.00;96882.94;5036746;28;20205;-72
2023/01/05 10:50:45;;;;;;;4.93;1.40;;;;;;;11.26;100.00;96874.03;5035826;28;20228;-72
2023/01/05 10:53:15;;;;;;;2.20;1.20;;;;;;;11.20;100.00;96880.00;5036995;28;20216;-72
2023/01/05 10:55:56;;;;;;;0.53;0.53;;;;;;;11.28;100.00;96871.25;5036816;28;20227;-72
2023/01/05 10:58:24;;;;;;;1.63;0.87;;;;;;;11.25;100.00;96877.69;5035921;28;20216;-72
2023/01/05 11:00:54;;;;;;;3.93;0.97;;;;;;;11.34;100.00;96876.69;5038058;28;20217;-71
2023/01/05 11:03:28;;;;;;;0.83;0.70;;;;;;;11.34;100.00;96871.41;5039083;28;20201;-70
2023/01/05 11:05:55;;;;;;;3.83;1.83;;;;;;;11.19;100.00;96867.78;5038384;28;20213;-72
2023/01/05 11:08:25;;;;;;;2.07;1.57;;;;;;;11.16;100.00;96860.22;5038645;28;20209;-70
2023/01/05 11:10:55;;;;;;;1.13;0.90;;;;;;;11.15;100.00;96863.81;5038652;28;20724;-72
2023/01/05 11:13:30;;;;;;;1.60;1.10;;;;;;;11.32;100.00;96854.09;5038799;28;20206;-71
2023/01/05 11:16:01;;;;;;;4.43;2.00;;;;;;;11.40;100.00;96849.59;5038763;28;20571;-71
2023/01/05 11:18:35;;;;;;;3.77;2.33;;;;;;;11.41;100.00;96847.81;5038672;28;20201;-71
2023/01/05 11:21:10;;;;;;;3.73;1.90;;;;;;;11.48;100.00;96841.69;5038352;28;20225;-72
2023/01/05 11:23:39;;;;;;;3.67;1.70;;;;;;;11.39;100.00;96853.25;5038617;28;20221;-71
2023/01/05 11:26:31;;;;;;;1.40;1.00;;;;;;;11.47;100.00;96855.03;5038762;28;20216;-71
2023/01/05 11:29:03;;;;;;;1.63;0.93;;;;;;;11.36;100.00;96853.56;5035432;28;20193;-71
2023/01/05 11:31:36;;;;;;;3.67;2.47;;;;;;;11.34;100.00;96850.31;5039154;28;20255;-71
2023/01/05 11:34:13;;;;;;;12.07;3.53;;;;;;;11.36;100.00;96850.13;5038186;28;20197;-71
2023/01/05 11:36:41;;;;;;;5.30;2.70;;;;;;;11.29;100.00;96851.75;5038992;28;20224;-71
2023/01/05 11:39:20;;;;;;;3.17;2.10;;;;;;;11.29;100.00;96839.41;5039220;28;20205;-71
2023/01/05 11:41:46;;;;;;;3.53;1.00;;;;;;;11.22;100.00;96851.59;5039020;28;20239;-71
2023/01/05 11:44:21;;;;;;;1.60;1.03;;;;;;;11.34;100.00;96860.84;5039822;28;20208;-71
2023/01/05 11:46:49;;;;;;;0.60;0.57;;;;;;;11.25;100.00;96856.56;5041842;28;20746;-71
2023/01/05 11:49:19;;;;;;;1.67;1.00;;;;;;;11.36;100.00;96848.31;5041088;28;20201;-71
2023/01/05 11:51:46;;;;;;;1.83;1.27;;;;;;;11.23;100.00;96850.63;5037605;28;20244;-71
2023/01/05 11:54:32;;;;;;;2.13;1.40;;;;;;;11.46;100.00;96854.22;5038524;28;20288;-71
2023/01/05 11:57:16;;;;;;;6.43;1.03;;;;;;;11.25;100.00;96868.91;5037522;28;20701;-71
2023/01/05 11:59:44;;;;;;;1.67;1.30;;;;;;;11.34;100.00;96865.28;5037397;28;20237;-71
2023/01/05 12:02:47;;;;;;;3.00;1.60;;;;;;;11.35;100.00;96867.75;5036992;28;20205;-72
2023/01/05 12:05:27;;;;;;;4.47;1.27;;;;;;;11.47;100.00;96853.25;5033564;28;20205;-70
2023/01/05 12:07:58;;;;;;;4.23;1.63;;;;;;;11.30;100.00;96863.97;5034829;28;20201;-71
2023/01/05 12:10:45;;;;;;;1.93;1.30;;;;;;;11.34;100.00;96866.13;5035377;28;20225;-71